sensor_id;sensor_type;location;lat;lon;timestamp;pressure;altitude;pressure_sealevel;temperature;humidity
16461;BME280;8341;42.048;24.650;2023-02-24T00:01:41;97438.78;;;7.21;100.00
16461;BME280;8341;42.048;24.650;2023-02-24T00:04:12;97442.59;;;7.02;100.00
16461;BME280;8341;42.048;24.650;2023-02-24T00:06:40;97440.66;;;7.02;100.00
16461;BME280;8341;42.048;24.650;2023-02-24T00:09:10;97439.31;;;7.07;100.00
16461;BME280;8341;42.048;24.650;2023-02-24T00:11:38;97440.03;;;7.29;100.00
16461;BME280;8341;42.048;24.650;2023-02-24T00:14:09;97440.78;;;7.29;100.00
16461;BME280;8341;42.048;24.650;2023-02-24T00:16:37;97438.63;;;7.55;100.00
16461;BME280;8341;42.048;24.650;2023-02-24T00:19:04;97426.78;;;7.71;100.00
16461;BME280;8341;42.048;24.650;2023-02-24T00:21:34;97431.81;;;7.41;100.00
16461;BME280;8341;42.048;24.650;2023-02-24T00:24:01;97425.03;;;7.37;100.00
16461;BME280;8341;42.048;24.650;2023-02-24T00:26:28;97425.94;;;7.43;100.00
16461;BME280;8341;42.048;24.650;2023-02-24T00:28:55;97422.25;;;7.28;100.00
16461;BME280;8341;42.048;24.650;2023-02-24T00:31:25;97426.59;;;7.25;100.00
16461;BME280;8341;42.048;24.650;2023-02-24T00:33:56;97430.19;;;7.53;100.00
16461;BME280;8341;42.048;24.650;2023-02-24T00:36:23;97422.69;;;7.57;100.00
16461;BME280;8341;42.048;24.650;2023-02-24T00:38:53;97415.72;;;7.56;100.00
16461;BME280;8341;42.048;24.650;2023-02-24T00:41:23;97415.78;;;7.74;100.00
16461;BME280;8341;42.048;24.650;2023-02-24T00:43:54;97416.72;;;7.89;100.00
16461;BME280;8341;42.048;24.650;2023-02-24T00:46:23;97422.66;;;8.06;100.00
16461;BME280;8341;42.048;24.650;2023-02-24T00:48:52;97406.97;;;8.19;100.00
16461;BME280;8341;42.048;24.650;2023-02-24T00:51:21;97409.59;;;8.32;100.00
16461;BME280;8341;42.048;24.650;2023-02-24T00:53:49;97419.25;;;8.42;100.00
16461;BME280;8341;42.048;24.650;2023-02-24T00:56:22;97409.59;;;8.50;100.00
16461;BME280;8341;42.048;24.650;2023-02-24T00:58:48;97411.38;;;8.44;100.00
16461;BME280;8341;42.048;24.650;2023-02-24T01:01:17;97402.94;;;8.42;100.00
16461;BME280;8341;42.048;24.650;2023-02-24T01:03:45;97407.16;;;8.43;100.00
16461;BME280;8341;42.048;24.650;2023-02-24T01:06:16;97394.91;;;8.56;100.00
16461;BME280;8341;42.048;24.650;2023-02-24T01:08:44;97397.66;;;8.38;100.00
16461;BME280;8341;42.048;24.650;2023-02-24T01:11:12;97392.22;;;8.47;100.00
16461;BME280;8341;42.048;24.650;2023-02-24T01:13:58;97393.88;;;8.54;100.00
16461;BME280;8341;42.048;24.650;2023-02-24T01:16:25;97389.03;;;8.49;100.00
16461;BME280;8341;42.048;24.650;2023-02-24T01:18:52;97385.72;;;8.54;100.00
16461;BME280;8341;42.048;24.650;2023-02-24T01:21:20;97382.09;;;8.48;100.00
16461;BME280;8341;42.048;24.650;2023-02-24T01:23:47;97379.53;;;8.53;100.00
16461;BME280;8341;42.048;24.650;2023-02-24T01:26:14;97376.19;;;8.40;100.00
16461;BME280;8341;42.048;24.650;2023-02-24T01:28:42;97364.00;;;8.27;100.00
16461;BME280;8341;42.048;24.650;2023-02-24T01:31:14;97373.00;;;8.05;100.00
16461;BME280;8341;42.048;24.650;2023-02-24T01:33:42;97375.75;;;8.24;100.00
16461;BME280;8341;42.048;24.650;2023-02-24T01:36:12;97365.47;;;8.18;100.00
16461;BME280;8341;42.048;24.650;2023-02-24T01:38:39;97373.75;;;7.97;100.00
16461;BME280;8341;42.048;24.650;2023-02-24T01:41:08;97374.91;;;7.69;100.00
16461;BME280;8341;42.048;24.650;2023-02-24T01:43:59;97373.84;;;7.57;100.00
16461;BME280;8341;42.048;24.650;2023-02-24T01:46:30;97371.06;;;7.48;100.00
16461;BME280;8341;42.048;24.650;2023-02-24T01:49:00;97368.66;;;7.50;100.00
16461;BME280;8341;42.048;24.650;2023-02-24T01:51:30;97368.25;;;7.61;100.00
16461;BME280;8341;42.048;24.650;2023-02-24T01:54:01;97363.03;;;7.75;100.00
16461;BME280;8341;42.048;24.650;2023-02-24T01:56:31;97358.19;;;7.79;100.00
16461;BME280;8341;42.048;24.650;2023-02-24T01:58:59;97369.38;;;7.90;100.00
16461;BME280;8341;42.048;24.650;2023-02-24T02:01:28;97376.03;;;8.07;100.00
16461;BME280;8341;42.048;24.650;2023-02-24T02:04:08;97375.28;;;8.16;100.00
16461;BME280;8341;42.048;24.650;2023-02-24T02:06:37;97372.72;;;8.22;100.00
16461;BME280;8341;42.048;24.650;2023-02-24T02:09:05;97371.69;;;8.28;100.00
16461;BME280;8341;42.048;24.650;2023-02-24T02:11:32;97371.19;;;8.20;100.00
16461;BME280;8341;42.048;24.650;2023-02-24T02:13:59;97367.25;;;7.85;100.00
16461;BME280;8341;42.048;24.650;2023-02-24T02:16:40;97368.47;;;8.11;100.00
16461;BME280;8341;42.048;24.650;2023-02-24T02:22:32;97368.38;;;8.33;100.00
16461;BME280;8341;42.048;24.650;2023-02-24T02:25:09;97371.34;;;8.17;100.00
16461;BME280;8341;42.048;24.650;2023-02-24T02:28:05;97360.94;;;8.06;100.00
16461;BME280;8341;42.048;24.650;2023-02-24T02:30:47;97349.56;;;7.63;100.00
16461;BME280;8341;42.048;24.650;2023-02-24T02:33:49;97352.09;;;7.48;100.00
16461;BME280;8341;42.048;24.650;2023-02-24T02:36:24;97364.22;;;7.74;100.00
16461;BME280;8341;42.048;24.650;2023-02-24T02:39:02;97371.97;;;7.45;100.00
16461;BME280;8341;42.048;24.650;2023-02-24T02:41:35;97374.00;;;7.14;100.00
16461;BME280;8341;42.048;24.650;2023-02-24T02:44:08;97366.94;;;6.94;100.00
16461;BME280;8341;42.048;24.650;2023-02-24T02:46:40;97380.41;;;6.76;100.00
16461;BME280;8341;42.048;24.650;2023-02-24T02:49:15;97376.97;;;6.54;100.00
16461;BME280;8341;42.048;24.650;2023-02-24T02:51:47;97379.22;;;6.77;100.00
16461;BME280;8341;42.048;24.650;2023-02-24T02:54:19;97385.88;;;6.42;100.00
16461;BME280;8341;42.048;24.650;2023-02-24T02:56:54;97386.13;;;6.35;100.00
16461;BME280;8341;42.048;24.650;2023-02-24T02:59:25;97386.69;;;6.08;100.00
16461;BME280;8341;42.048;24.650;2023-02-24T03:01:56;97395.38;;;6.25;100.00
16461;BME280;8341;42.048;24.650;2023-02-24T03:04:38;97390.31;;;6.49;100.00
16461;BME280;8341;42.048;24.650;2023-02-24T03:07:08;97390.63;;;6.72;100.00
16461;BME280;8341;42.048;24.650;2023-02-24T03:09:40;97383.88;;;6.55;100.00
16461;BME280;8341;42.048;24.650;2023-02-24T03:12:11;97391.56;;;6.35;100.00
16461;BME280;8341;42.048;24.650;2023-02-24T03:14:43;97392.69;;;6.68;100.00
16461;BME280;8341;42.048;24.650;2023-02-24T03:17:17;97393.44;;;6.90;100.00
16461;BME280;8341;42.048;24.650;2023-02-24T03:19:49;97390.78;;;7.00;100.00
16461;BME280;8341;42.048;24.650;2023-02-24T03:22:29;97392.59;;;7.03;100.00
16461;BME280;8341;42.048;24.650;2023-02-24T03:24:59;97387.97;;;6.81;100.00
16461;BME280;8341;42.048;24.650;2023-02-24T03:27:31;97383.50;;;6.66;100.00
16461;BME280;8341;42.048;24.650;2023-02-24T03:30:02;97379.66;;;6.54;100.00
16461;BME280;8341;42.048;24.650;2023-02-24T03:32:35;97375.56;;;6.50;100.00
16461;BME280;8341;42.048;24.650;2023-02-24T03:35:13;97373.38;;;6.57;100.00
16461;BME280;8341;42.048;24.650;2023-02-24T03:37:42;97367.22;;;6.87;100.00
16461;BME280;8341;42.048;24.650;2023-02-24T03:40:12;97374.22;;;7.07;100.00
16461;BME280;8341;42.048;24.650;2023-02-24T03:42:43;97372.19;;;7.20;100.00
16461;BME280;8341;42.048;24.650;2023-02-24T03:45:12;97374.00;;;7.23;100.00
16461;BME280;8341;42.048;24.650;2023-02-24T03:47:41;97377.31;;;7.27;100.00
16461;BME280;8341;42.048;24.650;2023-02-24T03:50:15;97383.03;;;7.20;100.00
16461;BME280;8341;42.048;24.650;2023-02-24T03:52:46;97374.66;;;7.36;100.00
16461;BME280;8341;42.048;24.650;2023-02-24T03:55:24;97376.19;;;7.46;100.00
16461;BME280;8341;42.048;24.650;2023-02-24T03:58:05;97370.94;;;7.51;100.00
16461;BME280;8341;42.048;24.650;2023-02-24T04:00:40;97370.88;;;7.33;100.00
16461;BME280;8341;42.048;24.650;2023-02-24T04:03:17;97372.59;;;7.49;100.00
16461;BME280;8341;42.048;24.650;2023-02-24T04:06:04;97363.28;;;7.59;100.00
16461;BME280;8341;42.048;24.650;2023-02-24T04:08:38;97366.44;;;7.57;100.00
16461;BME280;8341;42.048;24.650;2023-02-24T04:11:12;97366.47;;;7.67;100.00
16461;BME280;8341;42.048;24.650;2023-02-24T04:13:44;97372.94;;;7.69;100.00
16461;BME280;8341;42.048;24.650;2023-02-24T04:16:16;97366.94;;;7.74;100.00
16461;BME280;8341;42.048;24.650;2023-02-24T04:18:53;97363.03;;;7.75;100.00
16461;BME280;8341;42.048;24.650;2023-02-24T04:21:26;97366.13;;;7.55;100.00
16461;BME280;8341;42.048;24.650;2023-02-24T04:23:54;97362.00;;;7.33;100.00
16461;BME280;8341;42.048;24.650;2023-02-24T04:26:23;97353.91;;;7.42;100.00
16461;BME280;8341;42.048;24.650;2023-02-24T04:28:52;97355.16;;;7.19;100.00
16461;BME280;8341;42.048;24.650;2023-02-24T04:31:21;97350.19;;;7.27;100.00
16461;BME280;8341;42.048;24.650;2023-02-24T04:33:51;97345.94;;;7.17;100.00
16461;BME280;8341;42.048;24.650;2023-02-24T04:36:18;97341.63;;;7.28;100.00
16461;BME280;8341;42.048;24.650;2023-02-24T04:38:47;97350.41;;;7.41;100.00
16461;BME280;8341;42.048;24.650;2023-02-24T04:41:14;97343.75;;;7.33;100.00
16461;BME280;8341;42.048;24.650;2023-02-24T04:43:46;97346.97;;;7.50;100.00
16461;BME280;8341;42.048;24.650;2023-02-24T04:46:13;97352.13;;;7.57;100.00
16461;BME280;8341;42.048;24.650;2023-02-24T04:48:41;97352.56;;;7.55;100.00
16461;BME280;8341;42.048;24.650;2023-02-24T04:51:07;97347.28;;;7.61;100.00
16461;BME280;8341;42.048;24.650;2023-02-24T04:53:34;97347.25;;;7.43;100.00
16461;BME280;8341;42.048;24.650;2023-02-24T04:56:05;97353.56;;;7.40;100.00
16461;BME280;8341;42.048;24.650;2023-02-24T04:58:34;97342.91;;;7.06;100.00
16461;BME280;8341;42.048;24.650;2023-02-24T05:01:06;97350.56;;;6.98;100.00
16461;BME280;8341;42.048;24.650;2023-02-24T05:03:36;97328.28;;;7.03;100.00
16461;BME280;8341;42.048;24.650;2023-02-24T05:06:10;97342.66;;;7.22;100.00
16461;BME280;8341;42.048;24.650;2023-02-24T05:08:39;97345.66;;;6.84;100.00
16461;BME280;8341;42.048;24.650;2023-02-24T05:11:11;97348.56;;;6.89;100.00
16461;BME280;8341;42.048;24.650;2023-02-24T05:13:41;97339.06;;;6.63;100.00
16461;BME280;8341;42.048;24.650;2023-02-24T05:16:11;97348.66;;;6.77;100.00
16461;BME280;8341;42.048;24.650;2023-02-24T05:18:39;97346.09;;;6.30;100.00
16461;BME280;8341;42.048;24.650;2023-02-24T05:21:08;97343.13;;;6.37;100.00
16461;BME280;8341;42.048;24.650;2023-02-24T05:23:53;97348.41;;;6.62;100.00
16461;BME280;8341;42.048;24.650;2023-02-24T05:26:24;97344.94;;;6.40;100.00
16461;BME280;8341;42.048;24.650;2023-02-24T05:28:53;97349.28;;;6.38;100.00
16461;BME280;8341;42.048;24.650;2023-02-24T05:31:22;97339.91;;;6.51;100.00
16461;BME280;8341;42.048;24.650;2023-02-24T05:33:52;97340.66;;;6.30;100.00
16461;BME280;8341;42.048;24.650;2023-02-24T05:36:20;97345.31;;;6.29;100.00
16461;BME280;8341;42.048;24.650;2023-02-24T05:38:49;97353.16;;;6.49;100.00
16461;BME280;8341;42.048;24.650;2023-02-24T05:41:20;97346.59;;;6.59;100.00
16461;BME280;8341;42.048;24.650;2023-02-24T05:43:50;97354.00;;;6.68;100.00
16461;BME280;8341;42.048;24.650;2023-02-24T05:46:19;97353.88;;;6.71;100.00
16461;BME280;8341;42.048;24.650;2023-02-24T05:48:52;97357.19;;;6.75;100.00
16461;BME280;8341;42.048;24.650;2023-02-24T05:51:21;97350.88;;;6.69;100.00
16461;BME280;8341;42.048;24.650;2023-02-24T05:53:49;97347.56;;;6.74;100.00
16461;BME280;8341;42.048;24.650;2023-02-24T05:56:20;97348.56;;;6.89;100.00
16461;BME280;8341;42.048;24.650;2023-02-24T05:58:48;97349.13;;;6.84;100.00
16461;BME280;8341;42.048;24.650;2023-02-24T06:01:26;97362.41;;;6.91;100.00
16461;BME280;8341;42.048;24.650;2023-02-24T06:03:55;97360.91;;;6.90;100.00
16461;BME280;8341;42.048;24.650;2023-02-24T06:06:22;97356.09;;;6.94;100.00
16461;BME280;8341;42.048;24.650;2023-02-24T06:08:49;97351.03;;;7.06;100.00
16461;BME280;8341;42.048;24.650;2023-02-24T06:11:17;97356.22;;;6.91;100.00
16461;BME280;8341;42.048;24.650;2023-02-24T06:13:45;97362.78;;;7.03;100.00
16461;BME280;8341;42.048;24.650;2023-02-24T06:16:15;97358.03;;;7.16;100.00
16461;BME280;8341;42.048;24.650;2023-02-24T06:18:46;97365.66;;;7.08;100.00
16461;BME280;8341;42.048;24.650;2023-02-24T06:21:14;97357.16;;;7.28;100.00
16461;BME280;8341;42.048;24.650;2023-02-24T06:23:41;97359.44;;;7.38;100.00
16461;BME280;8341;42.048;24.650;2023-02-24T06:26:07;97360.69;;;7.55;100.00
16461;BME280;8341;42.048;24.650;2023-02-24T06:28:38;97355.91;;;7.69;100.00
16461;BME280;8341;42.048;24.650;2023-02-24T06:31:07;97361.50;;;7.74;100.00
16461;BME280;8341;42.048;24.650;2023-02-24T06:33:37;97359.38;;;7.78;100.00
16461;BME280;8341;42.048;24.650;2023-02-24T06:36:05;97342.63;;;7.62;100.00
16461;BME280;8341;42.048;24.650;2023-02-24T06:38:34;97340.59;;;7.35;100.00
16461;BME280;8341;42.048;24.650;2023-02-24T06:41:03;97345.47;;;7.09;100.00
16461;BME280;8341;42.048;24.650;2023-02-24T06:43:35;97349.50;;;6.96;100.00
16461;BME280;8341;42.048;24.650;2023-02-24T06:46:03;97344.56;;;7.03;100.00
16461;BME280;8341;42.048;24.650;2023-02-24T06:48:31;97336.63;;;7.18;100.00
16461;BME280;8341;42.048;24.650;2023-02-24T06:51:03;97341.81;;;7.43;100.00
16461;BME280;8341;42.048;24.650;2023-02-24T06:53:31;97342.16;;;7.54;100.00
16461;BME280;8341;42.048;24.650;2023-02-24T06:56:03;97338.72;;;7.63;100.00
16461;BME280;8341;42.048;24.650;2023-02-24T06:58:31;97334.91;;;7.42;100.00
16461;BME280;8341;42.048;24.650;2023-02-24T07:00:58;97340.25;;;6.84;100.00
16461;BME280;8341;42.048;24.650;2023-02-24T07:03:27;97343.72;;;6.84;100.00
16461;BME280;8341;42.048;24.650;2023-02-24T07:06:06;97348.47;;;6.71;100.00
16461;BME280;8341;42.048;24.650;2023-02-24T07:08:45;97344.47;;;6.85;100.00
16461;BME280;8341;42.048;24.650;2023-02-24T07:11:12;97337.13;;;6.94;100.00
16461;BME280;8341;42.048;24.650;2023-02-24T07:13:41;97335.75;;;7.21;100.00
16461;BME280;8341;42.048;24.650;2023-02-24T07:16:08;97337.56;;;7.24;100.00
16461;BME280;8341;42.048;24.650;2023-02-24T07:18:37;97331.13;;;7.39;100.00
16461;BME280;8341;42.048;24.650;2023-02-24T07:21:08;97341.16;;;7.21;100.00
16461;BME280;8341;42.048;24.650;2023-02-24T07:23:37;97331.97;;;7.18;100.00
16461;BME280;8341;42.048;24.650;2023-02-24T07:26:09;97347.16;;;7.16;100.00
16461;BME280;8341;42.048;24.650;2023-02-24T07:28:37;97340.28;;;7.24;100.00
16461;BME280;8341;42.048;24.650;2023-02-24T07:31:05;97336.53;;;6.90;100.00
16461;BME280;8341;42.048;24.650;2023-02-24T07:33:34;97332.94;;;7.03;100.00
16461;BME280;8341;42.048;24.650;2023-02-24T07:36:03;97328.78;;;7.11;100.00
16461;BME280;8341;42.048;24.650;2023-02-24T07:38:35;97335.44;;;7.28;100.00
16461;BME280;8341;42.048;24.650;2023-02-24T07:41:02;97331.44;;;7.41;100.00
16461;BME280;8341;42.048;24.650;2023-02-24T07:43:31;97334.31;;;7.56;100.00
16461;BME280;8341;42.048;24.650;2023-02-24T07:46:04;97331.59;;;7.47;100.00
16461;BME280;8341;42.048;24.650;2023-02-24T07:48:31;97334.28;;;7.38;100.00
16461;BME280;8341;42.048;24.650;2023-02-24T07:50:59;97332.53;;;7.62;100.00
16461;BME280;8341;42.048;24.650;2023-02-24T07:53:26;97330.84;;;7.46;100.00
16461;BME280;8341;42.048;24.650;2023-02-24T07:55:54;97332.25;;;7.69;100.00
16461;BME280;8341;42.048;24.650;2023-02-24T07:58:21;97336.44;;;7.52;100.00
16461;BME280;8341;42.048;24.650;2023-02-24T08:00:48;97327.75;;;7.75;100.00
16461;BME280;8341;42.048;24.650;2023-02-24T08:03:25;97334.38;;;7.92;100.00
16461;BME280;8341;42.048;24.650;2023-02-24T08:05:54;97334.25;;;7.96;100.00
16461;BME280;8341;42.048;24.650;2023-02-24T08:08:24;97329.72;;;7.93;100.00
16461;BME280;8341;42.048;24.650;2023-02-24T08:10:51;97329.72;;;8.11;100.00
16461;BME280;8341;42.048;24.650;2023-02-24T08:13:29;97330.31;;;8.24;100.00
16461;BME280;8341;42.048;24.650;2023-02-24T08:16:04;97333.50;;;8.32;100.00
16461;BME280;8341;42.048;24.650;2023-02-24T08:18:31;97336.19;;;8.04;100.00
16461;BME280;8341;42.048;24.650;2023-02-24T08:21:02;97337.72;;;8.05;100.00
16461;BME280;8341;42.048;24.650;2023-02-24T08:23:29;97341.63;;;8.23;100.00
16461;BME280;8341;42.048;24.650;2023-02-24T08:26:01;97346.34;;;8.31;100.00
16461;BME280;8341;42.048;24.650;2023-02-24T08:28:29;97342.41;;;8.41;100.00
16461;BME280;8341;42.048;24.650;2023-02-24T08:30:56;97347.69;;;8.27;100.00
16461;BME280;8341;42.048;24.650;2023-02-24T08:33:23;97339.56;;;8.27;100.00
16461;BME280;8341;42.048;24.650;2023-02-24T08:35:54;97339.84;;;8.29;100.00
16461;BME280;8341;42.048;24.650;2023-02-24T08:38:27;97331.22;;;8.39;100.00
16461;BME280;8341;42.048;24.650;2023-02-24T08:41:04;97333.59;;;8.55;100.00
16461;BME280;8341;42.048;24.650;2023-02-24T08:43:37;97334.94;;;8.69;100.00
16461;BME280;8341;42.048;24.650;2023-02-24T08:46:14;97333.72;;;8.79;100.00
16461;BME280;8341;42.048;24.650;2023-02-24T08:48:44;97327.63;;;8.42;100.00
16461;BME280;8341;42.048;24.650;2023-02-24T08:51:13;97330.91;;;8.01;100.00
16461;BME280;8341;42.048;24.650;2023-02-24T08:53:43;97327.28;;;8.40;100.00
16461;BME280;8341;42.048;24.650;2023-02-24T08:56:12;97331.34;;;7.72;100.00
16461;BME280;8341;42.048;24.650;2023-02-24T08:58:51;97334.06;;;8.17;100.00
16461;BME280;8341;42.048;24.650;2023-02-24T09:01:24;97320.66;;;8.23;100.00
16461;BME280;8341;42.048;24.650;2023-02-24T09:03:53;97320.78;;;8.19;100.00
16461;BME280;8341;42.048;24.650;2023-02-24T20:28:04;96888.06;;;7.33;100.00
16461;BME280;8341;42.048;24.650;2023-02-24T20:30:31;96879.66;;;7.31;100.00
16461;BME280;8341;42.048;24.650;2023-02-24T20:32:58;96892.75;;;7.33;100.00
16461;BME280;8341;42.048;24.650;2023-02-24T20:35:25;96893.03;;;7.35;98.56
16461;BME280;8341;42.048;24.650;2023-02-24T20:37:52;96880.44;;;7.23;99.59
16461;BME280;8341;42.048;24.650;2023-02-24T20:40:19;96886.81;;;7.02;100.00
16461;BME280;8341;42.048;24.650;2023-02-24T20:42:46;96878.22;;;7.12;100.00
16461;BME280;8341;42.048;24.650;2023-02-24T20:45:14;96878.81;;;7.16;100.00
16461;BME280;8341;42.048;24.650;2023-02-24T20:47:41;96877.09;;;7.28;100.00
16461;BME280;8341;42.048;24.650;2023-02-24T20:50:08;96868.81;;;7.31;100.00
16461;BME280;8341;42.048;24.650;2023-02-24T20:52:35;96877.72;;;7.23;100.00
16461;BME280;8341;42.048;24.650;2023-02-24T20:55:03;96868.34;;;7.33;100.00
16461;BME280;8341;42.048;24.650;2023-02-24T20:57:29;96877.06;;;7.37;100.00
16461;BME280;8341;42.048;24.650;2023-02-24T20:59:56;96875.69;;;7.41;100.00
16461;BME280;8341;42.048;24.650;2023-02-24T21:02:29;96866.78;;;7.41;100.00
16461;BME280;8341;42.048;24.650;2023-02-24T21:04:56;96867.84;;;7.43;100.00
16461;BME280;8341;42.048;24.650;2023-02-24T21:07:23;96857.16;;;7.40;100.00
16461;BME280;8341;42.048;24.650;2023-02-24T21:09:51;96858.66;;;7.41;99.92
16461;BME280;8341;42.048;24.650;2023-02-24T21:12:18;96859.56;;;7.38;99.68
16461;BME280;8341;42.048;24.650;2023-02-24T21:14:45;96857.16;;;7.40;99.91
16461;BME280;8341;42.048;24.650;2023-02-24T21:17:11;96851.63;;;7.34;100.00
16461;BME280;8341;42.048;24.650;2023-02-24T21:19:40;96856.56;;;7.36;100.00
16461;BME280;8341;42.048;24.650;2023-02-24T21:22:07;96840.00;;;7.34;100.00
16461;BME280;8341;42.048;24.650;2023-02-24T21:24:34;96837.59;;;7.36;100.00
16461;BME280;8341;42.048;24.650;2023-02-24T21:27:01;96843.66;;;7.31;100.00
16461;BME280;8341;42.048;24.650;2023-02-24T21:29:28;96843.34;;;7.29;99.98
16461;BME280;8341;42.048;24.650;2023-02-24T21:31:54;96850.56;;;7.32;100.00
16461;BME280;8341;42.048;24.650;2023-02-24T21:34:22;96847.25;;;7.28;100.00
16461;BME280;8341;42.048;24.650;2023-02-24T21:36:50;96843.38;;;7.20;99.64
16461;BME280;8341;42.048;24.650;2023-02-24T21:39:16;96845.19;;;7.23;99.55
16461;BME280;8341;42.048;24.650;2023-02-24T21:41:45;96855.47;;;7.19;99.31
16461;BME280;8341;42.048;24.650;2023-02-24T21:44:13;96847.47;;;7.15;100.00
16461;BME280;8341;42.048;24.650;2023-02-24T21:46:40;96846.72;;;7.15;100.00
16461;BME280;8341;42.048;24.650;2023-02-24T21:49:09;96846.31;;;7.07;100.00
16461;BME280;8341;42.048;24.650;2023-02-24T21:51:38;96849.75;;;7.08;100.00
16461;BME280;8341;42.048;24.650;2023-02-24T21:54:07;96840.94;;;6.89;100.00
16461;BME280;8341;42.048;24.650;2023-02-24T21:56:37;96846.66;;;6.91;100.00
16461;BME280;8341;42.048;24.650;2023-02-24T21:59:05;96842.31;;;6.84;100.00
16461;BME280;8341;42.048;24.650;2023-02-24T22:01:34;96836.59;;;6.82;100.00
16461;BME280;8341;42.048;24.650;2023-02-24T22:04:04;96843.66;;;6.89;100.00
16461;BME280;8341;42.048;24.650;2023-02-24T22:06:32;96840.50;;;6.90;100.00
16461;BME280;8341;42.048;24.650;2023-02-24T22:09:00;96835.06;;;6.90;100.00
16461;BME280;8341;42.048;24.650;2023-02-24T22:11:29;96838.41;;;6.85;100.00
16461;BME280;8341;42.048;24.650;2023-02-24T22:13:56;96829.97;;;6.83;100.00
16461;BME280;8341;42.048;24.650;2023-02-24T22:16:24;96834.81;;;6.79;100.00
16461;BME280;8341;42.048;24.650;2023-02-24T22:18:52;96836.47;;;6.77;100.00
16461;BME280;8341;42.048;24.650;2023-02-24T22:21:22;96840.56;;;6.72;100.00
16461;BME280;8341;42.048;24.650;2023-02-24T22:23:50;96838.13;;;6.74;100.00
16461;BME280;8341;42.048;24.650;2023-02-24T22:26:19;96828.53;;;6.64;100.00
16461;BME280;8341;42.048;24.650;2023-02-24T22:28:48;96837.28;;;6.59;100.00
16461;BME280;8341;42.048;24.650;2023-02-24T22:31:17;96835.78;;;6.49;100.00
16461;BME280;8341;42.048;24.650;2023-02-24T22:33:45;96833.84;;;6.32;100.00
16461;BME280;8341;42.048;24.650;2023-02-24T22:36:14;96835.97;;;6.37;100.00
16461;BME280;8341;42.048;24.650;2023-02-24T22:38:42;96829.78;;;6.36;100.00
16461;BME280;8341;42.048;24.650;2023-02-24T22:41:12;96830.66;;;6.42;100.00
16461;BME280;8341;42.048;24.650;2023-02-24T22:43:39;96821.63;;;6.45;100.00
16461;BME280;8341;42.048;24.650;2023-02-24T22:46:10;96821.34;;;6.52;100.00
16461;BME280;8341;42.048;24.650;2023-02-24T22:48:38;96808.69;;;6.40;100.00
16461;BME280;8341;42.048;24.650;2023-02-24T22:51:07;96816.66;;;6.53;100.00
16461;BME280;8341;42.048;24.650;2023-02-24T22:53:37;96809.16;;;6.39;100.00
16461;BME280;8341;42.048;24.650;2023-02-24T22:56:04;96806.75;;;6.41;100.00
16461;BME280;8341;42.048;24.650;2023-02-24T22:58:31;96797.28;;;6.36;100.00
16461;BME280;8341;42.048;24.650;2023-02-24T23:00:58;96802.72;;;6.36;100.00
16461;BME280;8341;42.048;24.650;2023-02-24T23:03:28;96804.81;;;6.41;100.00
16461;BME280;8341;42.048;24.650;2023-02-24T23:05:57;96805.56;;;6.42;100.00
16461;BME280;8341;42.048;24.650;2023-02-24T23:08:24;96794.44;;;6.30;100.00
16461;BME280;8341;42.048;24.650;2023-02-24T23:10:51;96797.91;;;6.22;100.00
16461;BME280;8341;42.048;24.650;2023-02-24T23:13:18;96796.53;;;6.36;100.00
16461;BME280;8341;42.048;24.650;2023-02-24T23:15:46;96785.84;;;6.32;100.00
16461;BME280;8341;42.048;24.650;2023-02-24T23:18:13;96790.06;;;6.24;100.00
16461;BME280;8341;42.048;24.650;2023-02-24T23:20:41;96781.97;;;6.15;100.00
16461;BME280;8341;42.048;24.650;2023-02-24T23:23:09;96789.03;;;6.12;100.00
16461;BME280;8341;42.048;24.650;2023-02-24T23:25:36;96773.69;;;6.09;100.00
16461;BME280;8341;42.048;24.650;2023-02-24T23:28:03;96775.03;;;6.23;100.00
16461;BME280;8341;42.048;24.650;2023-02-24T23:30:31;96778.94;;;6.31;100.00
16461;BME280;8341;42.048;24.650;2023-02-24T23:32:59;96783.91;;;6.32;100.00
16461;BME280;8341;42.048;24.650;2023-02-24T23:35:27;96790.25;;;6.20;100.00
16461;BME280;8341;42.048;24.650;2023-02-24T23:37:55;96783.50;;;6.16;100.00
16461;BME280;8341;42.048;24.650;2023-02-24T23:40:22;96786.50;;;6.18;100.00
16461;BME280;8341;42.048;24.650;2023-02-24T23:42:50;96780.47;;;6.14;100.00
16461;BME280;8341;42.048;24.650;2023-02-24T23:45:17;96777.47;;;6.03;100.00
16461;BME280;8341;42.048;24.650;2023-02-24T23:47:44;96775.66;;;5.73;100.00
16461;BME280;8341;42.048;24.650;2023-02-24T23:50:11;96778.69;;;5.93;100.00
16461;BME280;8341;42.048;24.650;2023-02-24T23:52:38;96773.56;;;5.95;100.00
16461;BME280;8341;42.048;24.650;2023-02-24T23:55:07;96783.34;;;6.01;100.00
16461;BME280;8341;42.048;24.650;2023-02-24T23:57:35;96757.94;;;5.99;100.00
